sensor_id;sensor_type;location;lat;lon;timestamp;temperature;humidity
14489;DHT22;7330;50.804;4.550;2023-03-14T00:01:08;13.20;99.90
14489;DHT22;7330;50.804;4.550;2023-03-14T00:03:36;13.10;99.90
14489;DHT22;7330;50.804;4.550;2023-03-14T00:06:03;13.20;99.90
14489;DHT22;7330;50.804;4.550;2023-03-14T00:08:30;13.10;99.90
14489;DHT22;7330;50.804;4.550;2023-03-14T00:10:56;13.10;99.90
14489;DHT22;7330;50.804;4.550;2023-03-14T00:13:24;13.10;99.90
14489;DHT22;7330;50.804;4.550;2023-03-14T00:15:50;13.10;99.90
14489;DHT22;7330;50.804;4.550;2023-03-14T00:18:17;13.10;99.90
14489;DHT22;7330;50.804;4.550;2023-03-14T00:20:46;13.00;99.90
14489;DHT22;7330;50.804;4.550;2023-03-14T00:23:13;13.10;99.90
14489;DHT22;7330;50.804;4.550;2023-03-14T00:25:40;13.00;99.90
14489;DHT22;7330;50.804;4.550;2023-03-14T00:28:07;13.00;99.90
14489;DHT22;7330;50.804;4.550;2023-03-14T00:37:56;13.00;99.90
14489;DHT22;7330;50.804;4.550;2023-03-14T00:40:23;13.00;99.90
14489;DHT22;7330;50.804;4.550;2023-03-14T00:45:16;13.00;99.90
14489;DHT22;7330;50.804;4.550;2023-03-14T00:47:43;13.00;99.90
14489;DHT22;7330;50.804;4.550;2023-03-14T00:50:10;13.00;99.90
14489;DHT22;7330;50.804;4.550;2023-03-14T00:52:37;12.90;99.90
14489;DHT22;7330;50.804;4.550;2023-03-14T00:55:06;12.90;99.90
14489;DHT22;7330;50.804;4.550;2023-03-14T01:00:00;12.90;99.90
14489;DHT22;7330;50.804;4.550;2023-03-14T01:02:29;12.90;99.90
14489;DHT22;7330;50.804;4.550;2023-03-14T01:04:56;12.80;99.90
14489;DHT22;7330;50.804;4.550;2023-03-14T01:07:22;12.80;99.90
14489;DHT22;7330;50.804;4.550;2023-03-14T01:12:18;12.80;99.90
14489;DHT22;7330;50.804;4.550;2023-03-14T01:14:45;12.80;99.90
14489;DHT22;7330;50.804;4.550;2023-03-14T01:19:39;12.80;99.90
14489;DHT22;7330;50.804;4.550;2023-03-14T01:22:05;12.80;99.90
14489;DHT22;7330;50.804;4.550;2023-03-14T01:26:59;12.80;99.90
14489;DHT22;7330;50.804;4.550;2023-03-14T01:29:27;12.80;99.90
14489;DHT22;7330;50.804;4.550;2023-03-14T01:31:54;12.80;99.90
14489;DHT22;7330;50.804;4.550;2023-03-14T01:34:21;12.70;99.90
14489;DHT22;7330;50.804;4.550;2023-03-14T01:36:48;12.70;99.90
14489;DHT22;7330;50.804;4.550;2023-03-14T01:41:42;12.60;99.90
14489;DHT22;7330;50.804;4.550;2023-03-14T01:44:09;12.60;99.90
14489;DHT22;7330;50.804;4.550;2023-03-14T01:46:39;12.60;99.90
14489;DHT22;7330;50.804;4.550;2023-03-14T01:51:54;12.50;99.90
14489;DHT22;7330;50.804;4.550;2023-03-14T01:56:54;12.40;99.90
14489;DHT22;7330;50.804;4.550;2023-03-14T01:59:22;12.40;99.90
14489;DHT22;7330;50.804;4.550;2023-03-14T02:01:51;12.40;99.90
14489;DHT22;7330;50.804;4.550;2023-03-14T02:04:18;12.40;99.90
14489;DHT22;7330;50.804;4.550;2023-03-14T02:09:12;12.30;99.90
14489;DHT22;7330;50.804;4.550;2023-03-14T02:11:39;12.30;99.90
14489;DHT22;7330;50.804;4.550;2023-03-14T02:14:07;12.20;99.90
14489;DHT22;7330;50.804;4.550;2023-03-14T02:16:34;12.20;99.90
14489;DHT22;7330;50.804;4.550;2023-03-14T02:19:03;12.20;99.90
14489;DHT22;7330;50.804;4.550;2023-03-14T02:21:35;12.10;99.90
14489;DHT22;7330;50.804;4.550;2023-03-14T02:24:07;12.10;99.90
14489;DHT22;7330;50.804;4.550;2023-03-14T02:26:36;12.10;99.90
14489;DHT22;7330;50.804;4.550;2023-03-14T02:29:06;12.10;99.90
14489;DHT22;7330;50.804;4.550;2023-03-14T02:31:33;12.10;99.90
14489;DHT22;7330;50.804;4.550;2023-03-14T02:33:59;12.10;99.90
14489;DHT22;7330;50.804;4.550;2023-03-14T02:36:26;12.10;99.90
14489;DHT22;7330;50.804;4.550;2023-03-14T02:38:55;12.10;99.90
14489;DHT22;7330;50.804;4.550;2023-03-14T02:41:24;12.10;99.90
14489;DHT22;7330;50.804;4.550;2023-03-14T02:43:51;12.10;99.90
14489;DHT22;7330;50.804;4.550;2023-03-14T02:46:20;12.10;99.90
14489;DHT22;7330;50.804;4.550;2023-03-14T02:48:48;12.00;99.90
14489;DHT22;7330;50.804;4.550;2023-03-14T02:51:16;12.00;99.90
14489;DHT22;7330;50.804;4.550;2023-03-14T02:53:43;12.00;99.90
14489;DHT22;7330;50.804;4.550;2023-03-14T02:58:38;12.00;99.90
14489;DHT22;7330;50.804;4.550;2023-03-14T03:01:05;11.90;99.90
14489;DHT22;7330;50.804;4.550;2023-03-14T03:03:33;12.00;99.90
14489;DHT22;7330;50.804;4.550;2023-03-14T03:06:00;12.00;99.90
14489;DHT22;7330;50.804;4.550;2023-03-14T03:08:27;12.00;99.90
14489;DHT22;7330;50.804;4.550;2023-03-14T03:10:54;12.00;99.90
14489;DHT22;7330;50.804;4.550;2023-03-14T03:13:22;12.00;99.90
14489;DHT22;7330;50.804;4.550;2023-03-14T03:15:49;12.00;99.90
14489;DHT22;7330;50.804;4.550;2023-03-14T03:23:12;12.00;99.90
14489;DHT22;7330;50.804;4.550;2023-03-14T03:28:06;12.00;99.90
14489;DHT22;7330;50.804;4.550;2023-03-14T03:30:36;12.00;99.90
14489;DHT22;7330;50.804;4.550;2023-03-14T03:33:03;12.00;99.90
14489;DHT22;7330;50.804;4.550;2023-03-14T03:35:30;11.90;99.90
14489;DHT22;7330;50.804;4.550;2023-03-14T03:37:58;11.90;99.90
14489;DHT22;7330;50.804;4.550;2023-03-14T03:50:14;11.90;99.90
14489;DHT22;7330;50.804;4.550;2023-03-14T03:52:41;11.90;99.90
14489;DHT22;7330;50.804;4.550;2023-03-14T03:55:08;11.80;99.90
14489;DHT22;7330;50.804;4.550;2023-03-14T03:57:35;11.80;99.90
14489;DHT22;7330;50.804;4.550;2023-03-14T04:00:02;11.80;99.90
14489;DHT22;7330;50.804;4.550;2023-03-14T04:04:57;11.80;99.90
14489;DHT22;7330;50.804;4.550;2023-03-14T04:07:25;11.80;99.90
14489;DHT22;7330;50.804;4.550;2023-03-14T04:09:52;11.80;99.90
14489;DHT22;7330;50.804;4.550;2023-03-14T04:12:18;11.80;99.90
14489;DHT22;7330;50.804;4.550;2023-03-14T04:14:45;11.90;99.90
14489;DHT22;7330;50.804;4.550;2023-03-14T04:17:12;11.90;99.90
14489;DHT22;7330;50.804;4.550;2023-03-14T04:22:07;11.80;99.90
14489;DHT22;7330;50.804;4.550;2023-03-14T04:29:29;11.80;99.90
14489;DHT22;7330;50.804;4.550;2023-03-14T04:34:23;11.80;99.90
14489;DHT22;7330;50.804;4.550;2023-03-14T04:36:50;11.80;99.90
14489;DHT22;7330;50.804;4.550;2023-03-14T04:39:17;11.80;99.90
14489;DHT22;7330;50.804;4.550;2023-03-14T04:41:44;11.90;99.90
14489;DHT22;7330;50.804;4.550;2023-03-14T04:44:10;11.90;99.90
14489;DHT22;7330;50.804;4.550;2023-03-14T04:46:39;11.90;99.90
14489;DHT22;7330;50.804;4.550;2023-03-14T04:49:05;11.90;99.90
14489;DHT22;7330;50.804;4.550;2023-03-14T04:51:32;11.90;99.90
14489;DHT22;7330;50.804;4.550;2023-03-14T04:53:59;11.90;99.90
14489;DHT22;7330;50.804;4.550;2023-03-14T04:56:26;11.90;99.90
14489;DHT22;7330;50.804;4.550;2023-03-14T04:58:54;11.90;99.90
14489;DHT22;7330;50.804;4.550;2023-03-14T05:01:20;12.00;99.90
14489;DHT22;7330;50.804;4.550;2023-03-14T05:03:49;12.00;99.90
14489;DHT22;7330;50.804;4.550;2023-03-14T05:06:16;11.90;99.90
14489;DHT22;7330;50.804;4.550;2023-03-14T05:08:42;12.00;99.90
14489;DHT22;7330;50.804;4.550;2023-03-14T05:11:10;12.00;99.90
14489;DHT22;7330;50.804;4.550;2023-03-14T05:13:37;11.90;99.90
14489;DHT22;7330;50.804;4.550;2023-03-14T05:16:05;12.00;99.90
14489;DHT22;7330;50.804;4.550;2023-03-14T05:18:32;11.90;99.90
14489;DHT22;7330;50.804;4.550;2023-03-14T05:21:00;11.90;99.90
14489;DHT22;7330;50.804;4.550;2023-03-14T05:25:54;12.00;99.90
14489;DHT22;7330;50.804;4.550;2023-03-14T05:28:21;12.00;99.90
14489;DHT22;7330;50.804;4.550;2023-03-14T05:30:47;12.00;99.90
14489;DHT22;7330;50.804;4.550;2023-03-14T05:33:14;12.00;99.90
14489;DHT22;7330;50.804;4.550;2023-03-14T05:35:41;12.00;99.90
14489;DHT22;7330;50.804;4.550;2023-03-14T05:38:09;12.10;99.90
14489;DHT22;7330;50.804;4.550;2023-03-14T05:40:36;12.00;99.90
14489;DHT22;7330;50.804;4.550;2023-03-14T05:45:30;12.00;99.90
14489;DHT22;7330;50.804;4.550;2023-03-14T05:47:57;12.00;99.90
14489;DHT22;7330;50.804;4.550;2023-03-14T05:50:23;12.00;99.90
14489;DHT22;7330;50.804;4.550;2023-03-14T05:52:50;11.90;99.90
14489;DHT22;7330;50.804;4.550;2023-03-14T05:55:18;12.00;99.90
14489;DHT22;7330;50.804;4.550;2023-03-14T06:00:12;12.00;99.90
14489;DHT22;7330;50.804;4.550;2023-03-14T06:02:39;12.10;99.90
14489;DHT22;7330;50.804;4.550;2023-03-14T06:05:07;12.00;99.90
14489;DHT22;7330;50.804;4.550;2023-03-14T06:07:33;12.00;99.90
14489;DHT22;7330;50.804;4.550;2023-03-14T06:10:00;12.00;99.90
14489;DHT22;7330;50.804;4.550;2023-03-14T06:14:56;12.10;99.90
14489;DHT22;7330;50.804;4.550;2023-03-14T06:17:23;12.10;99.90
14489;DHT22;7330;50.804;4.550;2023-03-14T06:24:45;12.10;99.90
14489;DHT22;7330;50.804;4.550;2023-03-14T06:29:38;12.00;99.90
14489;DHT22;7330;50.804;4.550;2023-03-14T06:34:34;12.00;99.90
14489;DHT22;7330;50.804;4.550;2023-03-14T06:39:27;12.00;99.90
14489;DHT22;7330;50.804;4.550;2023-03-14T06:44:21;12.00;99.90
14489;DHT22;7330;50.804;4.550;2023-03-14T06:46:48;12.10;99.90
14489;DHT22;7330;50.804;4.550;2023-03-14T06:49:15;12.10;99.90
14489;DHT22;7330;50.804;4.550;2023-03-14T06:51:43;12.10;99.90
14489;DHT22;7330;50.804;4.550;2023-03-14T06:54:10;12.10;99.90
14489;DHT22;7330;50.804;4.550;2023-03-14T06:56:37;12.10;99.90
14489;DHT22;7330;50.804;4.550;2023-03-14T06:59:04;12.10;99.90
14489;DHT22;7330;50.804;4.550;2023-03-14T07:01:31;12.10;99.90
14489;DHT22;7330;50.804;4.550;2023-03-14T07:06:27;12.00;99.90
14489;DHT22;7330;50.804;4.550;2023-03-14T07:08:56;11.80;99.90
14489;DHT22;7330;50.804;4.550;2023-03-14T07:11:23;11.70;99.90
14489;DHT22;7330;50.804;4.550;2023-03-14T07:13:49;11.60;99.90
14489;DHT22;7330;50.804;4.550;2023-03-14T07:16:16;11.50;99.90
14489;DHT22;7330;50.804;4.550;2023-03-14T07:18:43;11.50;99.90
14489;DHT22;7330;50.804;4.550;2023-03-14T07:21:10;11.40;99.90
14489;DHT22;7330;50.804;4.550;2023-03-14T07:23:37;11.20;99.90
14489;DHT22;7330;50.804;4.550;2023-03-14T07:28:35;11.00;99.90
14489;DHT22;7330;50.804;4.550;2023-03-14T07:33:29;10.80;99.90
14489;DHT22;7330;50.804;4.550;2023-03-14T07:35:56;10.70;99.90
14489;DHT22;7330;50.804;4.550;2023-03-14T07:38:22;10.60;99.90
14489;DHT22;7330;50.804;4.550;2023-03-14T07:43:16;10.50;99.90
14489;DHT22;7330;50.804;4.550;2023-03-14T07:45:46;10.40;99.90
14489;DHT22;7330;50.804;4.550;2023-03-14T07:48:13;10.30;99.90
14489;DHT22;7330;50.804;4.550;2023-03-14T07:50:40;10.30;99.90
14489;DHT22;7330;50.804;4.550;2023-03-14T07:53:06;10.20;99.90
14489;DHT22;7330;50.804;4.550;2023-03-14T07:55:33;10.20;99.90
14489;DHT22;7330;50.804;4.550;2023-03-14T07:58:00;10.10;99.90
14489;DHT22;7330;50.804;4.550;2023-03-14T08:00:27;10.10;99.90
14489;DHT22;7330;50.804;4.550;2023-03-14T08:05:22;10.10;99.90
14489;DHT22;7330;50.804;4.550;2023-03-14T08:07:49;10.00;99.90
14489;DHT22;7330;50.804;4.550;2023-03-14T08:10:16;10.00;99.90
14489;DHT22;7330;50.804;4.550;2023-03-14T08:12:47;10.00;99.90
14489;DHT22;7330;50.804;4.550;2023-03-14T08:15:14;10.00;99.90
14489;DHT22;7330;50.804;4.550;2023-03-14T08:17:41;9.90;99.90
14489;DHT22;7330;50.804;4.550;2023-03-14T08:25:05;10.00;99.90
14489;DHT22;7330;50.804;4.550;2023-03-14T08:27:32;10.00;99.90
14489;DHT22;7330;50.804;4.550;2023-03-14T08:30:02;9.90;99.90
14489;DHT22;7330;50.804;4.550;2023-03-14T08:34:56;9.90;99.90
14489;DHT22;7330;50.804;4.550;2023-03-14T08:39:51;9.80;99.90
14489;DHT22;7330;50.804;4.550;2023-03-14T08:42:19;9.80;99.90
14489;DHT22;7330;50.804;4.550;2023-03-14T08:47:13;9.70;99.90
14489;DHT22;7330;50.804;4.550;2023-03-14T08:49:40;9.70;99.90
14489;DHT22;7330;50.804;4.550;2023-03-14T08:52:07;9.60;99.90
14489;DHT22;7330;50.804;4.550;2023-03-14T08:54:33;9.60;99.90
14489;DHT22;7330;50.804;4.550;2023-03-14T08:57:00;9.60;99.90
14489;DHT22;7330;50.804;4.550;2023-03-14T09:01:56;9.50;99.90
14489;DHT22;7330;50.804;4.550;2023-03-14T09:04:22;9.40;99.90
14489;DHT22;7330;50.804;4.550;2023-03-14T09:06:49;9.40;99.90
14489;DHT22;7330;50.804;4.550;2023-03-14T09:09:16;9.30;99.90
14489;DHT22;7330;50.804;4.550;2023-03-14T09:14:10;9.30;99.90
14489;DHT22;7330;50.804;4.550;2023-03-14T09:23:59;9.30;99.90
14489;DHT22;7330;50.804;4.550;2023-03-14T09:28:53;9.20;99.90
14489;DHT22;7330;50.804;4.550;2023-03-14T09:31:20;9.10;99.90
14489;DHT22;7330;50.804;4.550;2023-03-14T09:36:14;9.00;99.90
14489;DHT22;7330;50.804;4.550;2023-03-14T09:38:41;9.00;99.90
14489;DHT22;7330;50.804;4.550;2023-03-14T09:41:14;9.10;99.90
14489;DHT22;7330;50.804;4.550;2023-03-14T09:46:08;9.00;99.90
14489;DHT22;7330;50.804;4.550;2023-03-14T09:48:36;9.10;99.90
14489;DHT22;7330;50.804;4.550;2023-03-14T09:51:04;9.10;99.90
14489;DHT22;7330;50.804;4.550;2023-03-14T09:53:33;9.00;99.90
14489;DHT22;7330;50.804;4.550;2023-03-14T09:58:31;9.00;99.90
14489;DHT22;7330;50.804;4.550;2023-03-14T10:00:58;9.00;99.90
14489;DHT22;7330;50.804;4.550;2023-03-14T10:13:15;9.00;99.90
14489;DHT22;7330;50.804;4.550;2023-03-14T10:18:11;9.00;99.90
14489;DHT22;7330;50.804;4.550;2023-03-14T10:20:39;9.10;99.90
14489;DHT22;7330;50.804;4.550;2023-03-14T10:25:34;9.20;99.90
14489;DHT22;7330;50.804;4.550;2023-03-14T10:28:02;9.20;99.90
14489;DHT22;7330;50.804;4.550;2023-03-14T10:30:30;9.20;99.90
14489;DHT22;7330;50.804;4.550;2023-03-14T10:37:55;9.20;99.90
14489;DHT22;7330;50.804;4.550;2023-03-14T10:40:24;9.20;99.90
14489;DHT22;7330;50.804;4.550;2023-03-14T10:45:22;9.20;99.90
14489;DHT22;7330;50.804;4.550;2023-03-14T10:50:22;9.20;99.90
14489;DHT22;7330;50.804;4.550;2023-03-14T10:52:49;9.10;99.90
14489;DHT22;7330;50.804;4.550;2023-03-14T10:57:44;9.10;99.90
14489;DHT22;7330;50.804;4.550;2023-03-14T11:00:14;9.00;99.90
14489;DHT22;7330;50.804;4.550;2023-03-14T11:07:37;9.00;99.90
14489;DHT22;7330;50.804;4.550;2023-03-14T11:10:08;9.00;99.90
14489;DHT22;7330;50.804;4.550;2023-03-14T11:15:09;9.00;99.90
14489;DHT22;7330;50.804;4.550;2023-03-14T11:17:41;9.00;99.90
14489;DHT22;7330;50.804;4.550;2023-03-14T11:20:17;9.00;99.90
14489;DHT22;7330;50.804;4.550;2023-03-14T11:25:18;8.90;99.90
14489;DHT22;7330;50.804;4.550;2023-03-14T11:27:47;8.90;99.90
14489;DHT22;7330;50.804;4.550;2023-03-14T11:30:18;8.90;99.90
14489;DHT22;7330;50.804;4.550;2023-03-14T11:32:46;8.80;99.90
14489;DHT22;7330;50.804;4.550;2023-03-14T11:35:15;8.80;99.90
14489;DHT22;7330;50.804;4.550;2023-03-14T11:37:45;8.80;99.90
14489;DHT22;7330;50.804;4.550;2023-03-14T11:42:39;8.70;99.90
14489;DHT22;7330;50.804;4.550;2023-03-14T11:45:11;8.70;99.90
14489;DHT22;7330;50.804;4.550;2023-03-14T11:47:42;8.60;99.90
14489;DHT22;7330;50.804;4.550;2023-03-14T11:52:37;8.60;99.90
14489;DHT22;7330;50.804;4.550;2023-03-14T11:57:34;8.50;99.90
14489;DHT22;7330;50.804;4.550;2023-03-14T12:00:02;8.50;99.90
14489;DHT22;7330;50.804;4.550;2023-03-14T12:07:48;8.40;99.90
14489;DHT22;7330;50.804;4.550;2023-03-14T12:10:20;8.30;99.90
14489;DHT22;7330;50.804;4.550;2023-03-14T12:15:18;8.20;99.90
14489;DHT22;7330;50.804;4.550;2023-03-14T12:22:41;8.10;99.90
14489;DHT22;7330;50.804;4.550;2023-03-14T12:25:15;8.10;99.90
14489;DHT22;7330;50.804;4.550;2023-03-14T12:28:02;8.10;99.90
14489;DHT22;7330;50.804;4.550;2023-03-14T12:37:51;8.10;99.90
14489;DHT22;7330;50.804;4.550;2023-03-14T12:40:24;8.10;99.90
14489;DHT22;7330;50.804;4.550;2023-03-14T12:48:06;8.10;99.90
14489;DHT22;7330;50.804;4.550;2023-03-14T12:58:16;8.00;99.90
14489;DHT22;7330;50.804;4.550;2023-03-14T13:03:17;8.00;99.90
14489;DHT22;7330;50.804;4.550;2023-03-14T13:05:54;7.90;99.90
14489;DHT22;7330;50.804;4.550;2023-03-14T13:08:35;7.90;99.90
14489;DHT22;7330;50.804;4.550;2023-03-14T13:11:02;7.80;99.90
14489;DHT22;7330;50.804;4.550;2023-03-14T13:13:33;7.80;99.90
14489;DHT22;7330;50.804;4.550;2023-03-14T13:16:01;7.90;99.90
14489;DHT22;7330;50.804;4.550;2023-03-14T13:18:29;7.90;99.90
14489;DHT22;7330;50.804;4.550;2023-03-14T13:20:58;8.00;99.90
14489;DHT22;7330;50.804;4.550;2023-03-14T13:23:26;8.00;99.90
14489;DHT22;7330;50.804;4.550;2023-03-14T13:25:53;8.10;99.90
14489;DHT22;7330;50.804;4.550;2023-03-14T13:30:49;8.10;99.90
14489;DHT22;7330;50.804;4.550;2023-03-14T13:33:18;8.20;99.90
14489;DHT22;7330;50.804;4.550;2023-03-14T13:35:46;8.20;99.90
14489;DHT22;7330;50.804;4.550;2023-03-14T13:38:15;8.20;99.90
14489;DHT22;7330;50.804;4.550;2023-03-14T13:40:42;8.20;99.90
14489;DHT22;7330;50.804;4.550;2023-03-14T13:43:19;8.30;99.90
14489;DHT22;7330;50.804;4.550;2023-03-14T13:58:04;8.20;99.90
14489;DHT22;7330;50.804;4.550;2023-03-14T14:00:31;8.20;99.90
14489;DHT22;7330;50.804;4.550;2023-03-14T14:02:58;8.20;99.90
14489;DHT22;7330;50.804;4.550;2023-03-14T14:05:26;8.30;99.90
14489;DHT22;7330;50.804;4.550;2023-03-14T14:12:48;8.40;99.90
14489;DHT22;7330;50.804;4.550;2023-03-14T14:17:47;8.40;99.90
14489;DHT22;7330;50.804;4.550;2023-03-14T14:20:17;8.50;99.90
14489;DHT22;7330;50.804;4.550;2023-03-14T14:27:41;8.50;99.90
14489;DHT22;7330;50.804;4.550;2023-03-14T14:30:24;8.60;99.90
14489;DHT22;7330;50.804;4.550;2023-03-14T14:32:53;8.50;99.90
14489;DHT22;7330;50.804;4.550;2023-03-14T14:35:34;8.60;99.90
14489;DHT22;7330;50.804;4.550;2023-03-14T14:38:01;8.50;99.90
14489;DHT22;7330;50.804;4.550;2023-03-14T14:40:29;8.50;99.90
14489;DHT22;7330;50.804;4.550;2023-03-14T14:43:01;8.60;99.90
14489;DHT22;7330;50.804;4.550;2023-03-14T14:45:29;8.60;99.90
14489;DHT22;7330;50.804;4.550;2023-03-14T14:47:58;8.60;99.90
14489;DHT22;7330;50.804;4.550;2023-03-14T14:50:29;8.60;99.90
14489;DHT22;7330;50.804;4.550;2023-03-14T14:55:28;8.70;99.90
14489;DHT22;7330;50.804;4.550;2023-03-14T15:00:23;8.50;99.90
14489;DHT22;7330;50.804;4.550;2023-03-14T15:07:46;8.10;99.90
14489;DHT22;7330;50.804;4.550;2023-03-14T15:10:13;8.00;99.90
14489;DHT22;7330;50.804;4.550;2023-03-14T15:12:40;7.80;99.90
14489;DHT22;7330;50.804;4.550;2023-03-14T15:17:34;7.60;99.90
14489;DHT22;7330;50.804;4.550;2023-03-14T15:20:01;7.60;99.90
14489;DHT22;7330;50.804;4.550;2023-03-14T15:27:30;7.50;99.90
14489;DHT22;7330;50.804;4.550;2023-03-14T15:29:58;7.50;99.90
14489;DHT22;7330;50.804;4.550;2023-03-14T15:32:25;7.60;99.90
14489;DHT22;7330;50.804;4.550;2023-03-14T15:37:19;7.70;99.90
14489;DHT22;7330;50.804;4.550;2023-03-14T15:42:13;7.80;99.90
14489;DHT22;7330;50.804;4.550;2023-03-14T15:44:41;7.70;99.90
14489;DHT22;7330;50.804;4.550;2023-03-14T15:47:08;7.70;99.90
14489;DHT22;7330;50.804;4.550;2023-03-14T15:49:36;7.70;99.90
14489;DHT22;7330;50.804;4.550;2023-03-14T15:54:30;7.80;99.90
14489;DHT22;7330;50.804;4.550;2023-03-14T15:56:57;7.80;99.90
14489;DHT22;7330;50.804;4.550;2023-03-14T16:01:52;7.80;99.90
14489;DHT22;7330;50.804;4.550;2023-03-14T16:04:19;7.80;99.90
14489;DHT22;7330;50.804;4.550;2023-03-14T16:06:46;7.80;99.90
14489;DHT22;7330;50.804;4.550;2023-03-14T16:09:13;7.80;99.90
14489;DHT22;7330;50.804;4.550;2023-03-14T16:16:34;7.80;99.90
14489;DHT22;7330;50.804;4.550;2023-03-14T16:19:02;7.80;99.90
14489;DHT22;7330;50.804;4.550;2023-03-14T16:23:58;7.70;99.90
14489;DHT22;7330;50.804;4.550;2023-03-14T16:28:54;7.80;99.90
14489;DHT22;7330;50.804;4.550;2023-03-14T16:31:21;7.80;99.90
14489;DHT22;7330;50.804;4.550;2023-03-14T16:33:49;7.80;99.90
14489;DHT22;7330;50.804;4.550;2023-03-14T16:38:44;7.70;99.90
14489;DHT22;7330;50.804;4.550;2023-03-14T16:41:12;7.70;99.90
14489;DHT22;7330;50.804;4.550;2023-03-14T16:43:39;7.70;99.90
14489;DHT22;7330;50.804;4.550;2023-03-14T16:46:06;7.70;99.90
14489;DHT22;7330;50.804;4.550;2023-03-14T16:48:33;7.70;99.90
14489;DHT22;7330;50.804;4.550;2023-03-14T16:53:27;7.70;99.90
14489;DHT22;7330;50.804;4.550;2023-03-14T16:55:56;7.60;99.90
14489;DHT22;7330;50.804;4.550;2023-03-14T17:00:51;7.60;99.90
14489;DHT22;7330;50.804;4.550;2023-03-14T17:03:18;7.70;99.90
14489;DHT22;7330;50.804;4.550;2023-03-14T17:05:45;7.60;99.90
14489;DHT22;7330;50.804;4.550;2023-03-14T17:18:03;7.60;99.90
14489;DHT22;7330;50.804;4.550;2023-03-14T17:27:51;7.50;99.90
14489;DHT22;7330;50.804;4.550;2023-03-14T17:30:18;7.50;99.90
14489;DHT22;7330;50.804;4.550;2023-03-14T17:32:45;7.40;99.90
14489;DHT22;7330;50.804;4.550;2023-03-14T17:35:13;7.40;99.90
14489;DHT22;7330;50.804;4.550;2023-03-14T17:42:34;7.50;99.90
14489;DHT22;7330;50.804;4.550;2023-03-14T17:45:01;7.40;99.90
14489;DHT22;7330;50.804;4.550;2023-03-14T17:47:27;7.40;99.90
14489;DHT22;7330;50.804;4.550;2023-03-14T17:49:54;7.40;99.90
14489;DHT22;7330;50.804;4.550;2023-03-14T17:52:22;7.30;99.90
14489;DHT22;7330;50.804;4.550;2023-03-14T17:59:43;7.30;99.90
14489;DHT22;7330;50.804;4.550;2023-03-14T18:02:10;7.30;99.90
14489;DHT22;7330;50.804;4.550;2023-03-14T18:04:38;7.30;99.90
14489;DHT22;7330;50.804;4.550;2023-03-14T18:07:05;7.20;99.90
14489;DHT22;7330;50.804;4.550;2023-03-14T18:12:00;7.20;99.90
14489;DHT22;7330;50.804;4.550;2023-03-14T18:17:08;7.10;99.90
14489;DHT22;7330;50.804;4.550;2023-03-14T18:22:04;7.10;99.90
14489;DHT22;7330;50.804;4.550;2023-03-14T18:26:58;7.10;99.90
14489;DHT22;7330;50.804;4.550;2023-03-14T18:29:26;7.10;99.90
14489;DHT22;7330;50.804;4.550;2023-03-14T18:36:49;7.00;99.90
14489;DHT22;7330;50.804;4.550;2023-03-14T18:41:43;6.90;99.90
14489;DHT22;7330;50.804;4.550;2023-03-14T18:44:10;6.80;99.90
14489;DHT22;7330;50.804;4.550;2023-03-14T18:51:32;6.70;99.90
14489;DHT22;7330;50.804;4.550;2023-03-14T18:56:27;6.70;99.90
14489;DHT22;7330;50.804;4.550;2023-03-14T18:58:54;6.70;99.90
14489;DHT22;7330;50.804;4.550;2023-03-14T19:01:21;6.60;99.90
14489;DHT22;7330;50.804;4.550;2023-03-14T19:03:49;6.50;99.90
14489;DHT22;7330;50.804;4.550;2023-03-14T19:08:46;6.50;99.90
14489;DHT22;7330;50.804;4.550;2023-03-14T19:11:13;6.50;99.90
14489;DHT22;7330;50.804;4.550;2023-03-14T19:16:08;6.50;99.90
14489;DHT22;7330;50.804;4.550;2023-03-14T19:18:36;6.50;99.90
14489;DHT22;7330;50.804;4.550;2023-03-14T19:21:03;6.50;99.90
14489;DHT22;7330;50.804;4.550;2023-03-14T19:23:31;6.40;99.90
14489;DHT22;7330;50.804;4.550;2023-03-14T19:25:59;6.40;99.90
14489;DHT22;7330;50.804;4.550;2023-03-14T19:30:54;6.50;99.90
14489;DHT22;7330;50.804;4.550;2023-03-14T19:33:21;6.50;99.90
14489;DHT22;7330;50.804;4.550;2023-03-14T19:40:42;6.50;99.90
14489;DHT22;7330;50.804;4.550;2023-03-14T19:48:08;6.50;99.90
14489;DHT22;7330;50.804;4.550;2023-03-14T19:50:36;6.50;99.90
14489;DHT22;7330;50.804;4.550;2023-03-14T19:53:03;6.60;99.90
14489;DHT22;7330;50.804;4.550;2023-03-14T19:55:32;6.60;99.90
14489;DHT22;7330;50.804;4.550;2023-03-14T20:00:26;6.60;99.90
14489;DHT22;7330;50.804;4.550;2023-03-14T20:02:53;6.50;99.90
14489;DHT22;7330;50.804;4.550;2023-03-14T20:12:43;6.40;99.90
14489;DHT22;7330;50.804;4.550;2023-03-14T20:17:42;6.30;99.90
14489;DHT22;7330;50.804;4.550;2023-03-14T20:20:10;6.30;99.90
14489;DHT22;7330;50.804;4.550;2023-03-14T20:22:37;6.20;99.90
14489;DHT22;7330;50.804;4.550;2023-03-14T20:25:04;6.20;99.90
14489;DHT22;7330;50.804;4.550;2023-03-14T20:29:59;6.10;99.90
14489;DHT22;7330;50.804;4.550;2023-03-14T20:32:27;6.10;99.90
14489;DHT22;7330;50.804;4.550;2023-03-14T20:34:54;6.10;99.90
14489;DHT22;7330;50.804;4.550;2023-03-14T20:37:21;6.00;99.90
14489;DHT22;7330;50.804;4.550;2023-03-14T20:39:48;6.00;99.90
14489;DHT22;7330;50.804;4.550;2023-03-14T20:42:15;5.90;99.90
14489;DHT22;7330;50.804;4.550;2023-03-14T20:44:43;5.90;99.90
14489;DHT22;7330;50.804;4.550;2023-03-14T20:47:11;5.90;99.90
14489;DHT22;7330;50.804;4.550;2023-03-14T20:49:38;5.90;99.90
14489;DHT22;7330;50.804;4.550;2023-03-14T20:52:05;5.90;99.90
14489;DHT22;7330;50.804;4.550;2023-03-14T20:54:32;5.90;99.90
14489;DHT22;7330;50.804;4.550;2023-03-14T20:59:26;5.80;99.90
14489;DHT22;7330;50.804;4.550;2023-03-14T21:01:53;5.80;99.90
14489;DHT22;7330;50.804;4.550;2023-03-14T21:04:23;5.80;99.90
14489;DHT22;7330;50.804;4.550;2023-03-14T21:06:50;5.70;99.90
14489;DHT22;7330;50.804;4.550;2023-03-14T21:09:19;5.60;99.90
14489;DHT22;7330;50.804;4.550;2023-03-14T21:11:46;5.60;99.90
14489;DHT22;7330;50.804;4.550;2023-03-14T21:14:13;5.70;99.90
14489;DHT22;7330;50.804;4.550;2023-03-14T21:16:41;5.70;99.90
14489;DHT22;7330;50.804;4.550;2023-03-14T21:19:08;5.70;99.90
14489;DHT22;7330;50.804;4.550;2023-03-14T21:21:37;5.60;99.90
14489;DHT22;7330;50.804;4.550;2023-03-14T21:24:04;5.70;99.90
14489;DHT22;7330;50.804;4.550;2023-03-14T21:26:31;5.60;99.90
14489;DHT22;7330;50.804;4.550;2023-03-14T21:28:58;5.70;99.90
14489;DHT22;7330;50.804;4.550;2023-03-14T21:31:27;5.70;99.90
14489;DHT22;7330;50.804;4.550;2023-03-14T21:41:16;5.60;99.90
14489;DHT22;7330;50.804;4.550;2023-03-14T21:43:43;5.50;99.90
14489;DHT22;7330;50.804;4.550;2023-03-14T21:46:10;5.50;99.90
14489;DHT22;7330;50.804;4.550;2023-03-14T21:48:37;5.50;99.90
14489;DHT22;7330;50.804;4.550;2023-03-14T21:51:04;5.50;99.90
14489;DHT22;7330;50.804;4.550;2023-03-14T21:53:31;5.50;99.90
14489;DHT22;7330;50.804;4.550;2023-03-14T21:55:58;5.40;99.90
14489;DHT22;7330;50.804;4.550;2023-03-14T21:58:26;5.40;99.90
14489;DHT22;7330;50.804;4.550;2023-03-14T22:03:20;5.40;99.90
14489;DHT22;7330;50.804;4.550;2023-03-14T22:05:48;5.40;99.90
14489;DHT22;7330;50.804;4.550;2023-03-14T22:08:16;5.40;99.90
14489;DHT22;7330;50.804;4.550;2023-03-14T22:10:44;5.40;99.90
14489;DHT22;7330;50.804;4.550;2023-03-14T22:13:11;5.40;99.90
14489;DHT22;7330;50.804;4.550;2023-03-14T22:15:40;5.30;99.90
14489;DHT22;7330;50.804;4.550;2023-03-14T22:20:34;5.30;99.90